sensor_id;sensor_type;location;lat;lon;timestamp;temperature;humidity
66962;HTU21D;53897;51.126;5.868;2022-12-08T18:23:08;22.55;41.50
66962;HTU21D;53897;51.126;5.868;2022-12-08T18:25:34;22.57;41.39
66962;HTU21D;53897;51.126;5.868;2022-12-08T18:27:59;22.56;41.23
66962;HTU21D;53897;51.126;5.868;2022-12-08T18:30:25;22.58;41.10
66962;HTU21D;53897;51.126;5.868;2022-12-08T18:32:51;22.57;40.94
66962;HTU21D;53897;51.126;5.868;2022-12-08T18:35:17;22.56;40.87
66962;HTU21D;53897;51.126;5.868;2022-12-08T18:37:42;22.57;40.63
66962;HTU21D;53897;51.126;5.868;2022-12-08T18:40:09;22.56;40.81
66962;HTU21D;53897;51.126;5.868;2022-12-08T18:42:35;22.56;40.97
66962;HTU21D;53897;51.126;5.868;2022-12-08T18:45:01;22.56;41.06
66962;HTU21D;53897;51.126;5.868;2022-12-08T18:47:33;22.57;41.05
66962;HTU21D;53897;51.126;5.868;2022-12-08T18:49:59;22.57;40.97
66962;HTU21D;53897;51.126;5.868;2022-12-08T18:52:26;22.57;40.94
66962;HTU21D;53897;51.126;5.868;2022-12-08T18:54:52;22.58;40.96
66962;HTU21D;53897;51.126;5.868;2022-12-08T18:57:18;22.57;41.14
66962;HTU21D;53897;51.126;5.868;2022-12-08T18:59:44;22.57;41.14
66962;HTU21D;53897;51.126;5.868;2022-12-08T19:02:13;22.56;41.16
66962;HTU21D;53897;51.126;5.868;2022-12-08T19:04:39;22.57;40.99
66962;HTU21D;53897;51.126;5.868;2022-12-08T19:07:08;22.57;40.96
66962;HTU21D;53897;51.126;5.868;2022-12-08T19:09:35;22.56;40.89
66962;HTU21D;53897;51.126;5.868;2022-12-08T19:12:01;22.57;40.94
66962;HTU21D;53897;51.126;5.868;2022-12-08T19:14:27;22.57;41.01
66962;HTU21D;53897;51.126;5.868;2022-12-08T19:16:57;22.57;41.08
66962;HTU21D;53897;51.126;5.868;2022-12-08T19:19:25;22.57;41.05
66962;HTU21D;53897;51.126;5.868;2022-12-08T19:21:51;22.58;41.01
66962;HTU21D;53897;51.126;5.868;2022-12-08T19:24:17;22.60;40.96
66962;HTU21D;53897;51.126;5.868;2022-12-08T19:26:43;22.62;40.89
66962;HTU21D;53897;51.126;5.868;2022-12-08T19:29:10;22.61;40.84
66962;HTU21D;53897;51.126;5.868;2022-12-08T19:31:35;22.62;40.68
66962;HTU21D;53897;51.126;5.868;2022-12-08T19:34:01;22.62;40.68
66962;HTU21D;53897;51.126;5.868;2022-12-08T19:36:27;22.61;40.68
66962;HTU21D;53897;51.126;5.868;2022-12-08T19:39:00;22.60;40.58
66962;HTU21D;53897;51.126;5.868;2022-12-08T19:41:44;22.61;40.45
66962;HTU21D;53897;51.126;5.868;2022-12-08T19:44:29;22.60;40.57
66962;HTU21D;53897;51.126;5.868;2022-12-08T19:47:14;22.61;40.64
66962;HTU21D;53897;51.126;5.868;2022-12-08T19:49:40;22.60;40.67
66962;HTU21D;53897;51.126;5.868;2022-12-08T19:52:06;22.58;40.69
66962;HTU21D;53897;51.126;5.868;2022-12-08T19:54:33;22.58;40.67
66962;HTU21D;53897;51.126;5.868;2022-12-08T19:56:59;22.58;40.65
66962;HTU21D;53897;51.126;5.868;2022-12-08T19:59:25;22.58;40.59
66962;HTU21D;53897;51.126;5.868;2022-12-08T20:01:52;22.57;40.49
66962;HTU21D;53897;51.126;5.868;2022-12-08T20:04:21;22.58;40.56
66962;HTU21D;53897;51.126;5.868;2022-12-08T20:06:47;22.57;40.54
66962;HTU21D;53897;51.126;5.868;2022-12-08T20:09:13;22.56;40.53
66962;HTU21D;53897;51.126;5.868;2022-12-08T20:11:39;22.57;40.57
66962;HTU21D;53897;51.126;5.868;2022-12-08T20:14:05;22.57;40.49
66962;HTU21D;53897;51.126;5.868;2022-12-08T20:16:31;22.57;40.49
66962;HTU21D;53897;51.126;5.868;2022-12-08T20:18:57;22.56;40.47
66962;HTU21D;53897;51.126;5.868;2022-12-08T20:21:23;22.56;40.42
66962;HTU21D;53897;51.126;5.868;2022-12-08T20:23:49;22.56;40.41
66962;HTU21D;53897;51.126;5.868;2022-12-08T20:26:17;22.55;40.39
66962;HTU21D;53897;51.126;5.868;2022-12-08T20:28:43;22.55;40.40
66962;HTU21D;53897;51.126;5.868;2022-12-08T20:31:23;22.55;40.39
66962;HTU21D;53897;51.126;5.868;2022-12-08T20:33:49;22.55;40.39
66962;HTU21D;53897;51.126;5.868;2022-12-08T20:36:17;22.54;40.19
66962;HTU21D;53897;51.126;5.868;2022-12-08T20:38:49;22.53;40.26
66962;HTU21D;53897;51.126;5.868;2022-12-08T20:41:15;22.54;40.32
66962;HTU21D;53897;51.126;5.868;2022-12-08T20:43:42;22.53;40.32
66962;HTU21D;53897;51.126;5.868;2022-12-08T20:46:11;22.53;40.21
66962;HTU21D;53897;51.126;5.868;2022-12-08T20:48:37;22.53;40.11
66962;HTU21D;53897;51.126;5.868;2022-12-08T20:51:03;22.53;40.10
66962;HTU21D;53897;51.126;5.868;2022-12-08T20:53:29;22.52;40.20
66962;HTU21D;53897;51.126;5.868;2022-12-08T20:55:55;22.54;40.32
66962;HTU21D;53897;51.126;5.868;2022-12-08T20:58:21;22.53;40.27
66962;HTU21D;53897;51.126;5.868;2022-12-08T21:00:47;22.52;40.25
66962;HTU21D;53897;51.126;5.868;2022-12-08T21:03:14;22.52;40.29
66962;HTU21D;53897;51.126;5.868;2022-12-08T21:05:47;22.51;40.22
66962;HTU21D;53897;51.126;5.868;2022-12-08T21:08:13;22.52;40.18
66962;HTU21D;53897;51.126;5.868;2022-12-08T21:10:38;22.51;40.18
66962;HTU21D;53897;51.126;5.868;2022-12-08T21:13:04;22.51;40.21
66962;HTU21D;53897;51.126;5.868;2022-12-08T21:15:30;22.50;40.19
66962;HTU21D;53897;51.126;5.868;2022-12-08T21:17:55;22.49;40.19
66962;HTU21D;53897;51.126;5.868;2022-12-08T21:20:21;22.49;40.17
66962;HTU21D;53897;51.126;5.868;2022-12-08T21:22:48;22.49;40.16
66962;HTU21D;53897;51.126;5.868;2022-12-08T21:25:14;22.48;40.16
66962;HTU21D;53897;51.126;5.868;2022-12-08T21:27:39;22.48;40.16
66962;HTU21D;53897;51.126;5.868;2022-12-08T21:30:06;22.48;40.16
66962;HTU21D;53897;51.126;5.868;2022-12-08T21:32:32;22.47;40.14
66962;HTU21D;53897;51.126;5.868;2022-12-08T21:34:58;22.48;40.13
66962;HTU21D;53897;51.126;5.868;2022-12-08T21:37:24;22.47;40.12
66962;HTU21D;53897;51.126;5.868;2022-12-08T21:39:49;22.47;40.09
66962;HTU21D;53897;51.126;5.868;2022-12-08T21:42:15;22.47;40.08
66962;HTU21D;53897;51.126;5.868;2022-12-08T21:45:00;22.47;40.08
66962;HTU21D;53897;51.126;5.868;2022-12-08T21:47:26;22.46;40.04
66962;HTU21D;53897;51.126;5.868;2022-12-08T21:49:51;22.44;40.03
66962;HTU21D;53897;51.126;5.868;2022-12-08T21:52:17;22.44;40.08
66962;HTU21D;53897;51.126;5.868;2022-12-08T21:54:43;22.44;39.97
66962;HTU21D;53897;51.126;5.868;2022-12-08T21:57:08;22.43;39.94
66962;HTU21D;53897;51.126;5.868;2022-12-08T21:59:34;22.43;39.94
66962;HTU21D;53897;51.126;5.868;2022-12-08T22:02:00;22.42;39.99
66962;HTU21D;53897;51.126;5.868;2022-12-08T22:04:26;22.42;39.99
66962;HTU21D;53897;51.126;5.868;2022-12-08T22:06:51;22.41;40.10
66962;HTU21D;53897;51.126;5.868;2022-12-08T22:09:17;22.41;40.04
66962;HTU21D;53897;51.126;5.868;2022-12-08T22:11:43;22.40;39.92
66962;HTU21D;53897;51.126;5.868;2022-12-08T22:14:09;22.39;39.95
66962;HTU21D;53897;51.126;5.868;2022-12-08T22:16:35;22.38;39.92
66962;HTU21D;53897;51.126;5.868;2022-12-08T22:19:01;22.38;39.91
66962;HTU21D;53897;51.126;5.868;2022-12-08T22:21:26;22.36;39.90
66962;HTU21D;53897;51.126;5.868;2022-12-08T22:23:52;22.34;39.86
66962;HTU21D;53897;51.126;5.868;2022-12-08T22:26:18;22.33;39.88
66962;HTU21D;53897;51.126;5.868;2022-12-08T22:28:43;22.33;39.79
66962;HTU21D;53897;51.126;5.868;2022-12-08T22:31:15;22.33;39.88
66962;HTU21D;53897;51.126;5.868;2022-12-08T22:33:41;22.29;39.92
66962;HTU21D;53897;51.126;5.868;2022-12-08T22:36:14;22.29;39.89
66962;HTU21D;53897;51.126;5.868;2022-12-08T22:38:40;22.28;39.85
66962;HTU21D;53897;51.126;5.868;2022-12-08T22:41:06;22.25;39.92
66962;HTU21D;53897;51.126;5.868;2022-12-08T22:43:34;22.25;39.93
66962;HTU21D;53897;51.126;5.868;2022-12-08T22:46:00;22.24;39.85
66962;HTU21D;53897;51.126;5.868;2022-12-08T22:48:26;22.23;39.88
66962;HTU21D;53897;51.126;5.868;2022-12-08T22:50:59;22.20;39.88
66962;HTU21D;53897;51.126;5.868;2022-12-08T22:53:25;22.20;39.83
66962;HTU21D;53897;51.126;5.868;2022-12-08T22:55:51;22.21;39.79
66962;HTU21D;53897;51.126;5.868;2022-12-08T22:58:17;22.18;39.74
66962;HTU21D;53897;51.126;5.868;2022-12-08T23:00:44;22.17;39.77
66962;HTU21D;53897;51.126;5.868;2022-12-08T23:03:10;22.14;39.73
66962;HTU21D;53897;51.126;5.868;2022-12-08T23:05:38;22.12;39.73
66962;HTU21D;53897;51.126;5.868;2022-12-08T23:08:06;22.10;39.65
66962;HTU21D;53897;51.126;5.868;2022-12-08T23:10:33;22.09;39.68
66962;HTU21D;53897;51.126;5.868;2022-12-08T23:12:59;22.07;39.61
66962;HTU21D;53897;51.126;5.868;2022-12-08T23:15:25;22.06;39.58
66962;HTU21D;53897;51.126;5.868;2022-12-08T23:17:51;22.04;39.51
66962;HTU21D;53897;51.126;5.868;2022-12-08T23:20:17;22.02;39.52
66962;HTU21D;53897;51.126;5.868;2022-12-08T23:22:43;22.02;39.47
66962;HTU21D;53897;51.126;5.868;2022-12-08T23:25:08;21.99;39.46
66962;HTU21D;53897;51.126;5.868;2022-12-08T23:27:35;21.99;39.43
66962;HTU21D;53897;51.126;5.868;2022-12-08T23:30:03;21.96;39.37
66962;HTU21D;53897;51.126;5.868;2022-12-08T23:32:29;21.94;39.33
66962;HTU21D;53897;51.126;5.868;2022-12-08T23:34:54;21.93;39.44
66962;HTU21D;53897;51.126;5.868;2022-12-08T23:37:20;21.92;39.40
66962;HTU21D;53897;51.126;5.868;2022-12-08T23:39:46;21.90;39.41
66962;HTU21D;53897;51.126;5.868;2022-12-08T23:42:11;21.90;39.43
66962;HTU21D;53897;51.126;5.868;2022-12-08T23:44:37;21.87;39.39
66962;HTU21D;53897;51.126;5.868;2022-12-08T23:47:03;21.87;39.36
66962;HTU21D;53897;51.126;5.868;2022-12-08T23:49:29;21.84;39.33
66962;HTU21D;53897;51.126;5.868;2022-12-08T23:51:54;21.83;39.30
66962;HTU21D;53897;51.126;5.868;2022-12-08T23:54:20;21.81;39.30
66962;HTU21D;53897;51.126;5.868;2022-12-08T23:56:46;21.79;39.29
66962;HTU21D;53897;51.126;5.868;2022-12-08T23:59:11;21.77;39.22
